Ludowici, Georgia
Current Conditions -  °F | °C
As of 9:35 AM on Saturday 22 Nov 2014 (Local Time) from KJES Reporting Station
Clear Clear  
Wind Chill: 61°   Ceiling: Unl
Heat Index: 61°   Visibility: 10mi
Dew Point: 50°   Wind: 12mph
Humidity: 68%   Direction: 90°E
Pressure: 30.43"   Gusts: NA
Location:  31.71°N, 81.74°W
Report Text: KJES 221435Z AUTO 09010KT 10SM CLR 16/10 A3043 RMK AO2
Loading
Personal Weather Stations






























Interactive Weather Map New forecast layout! Learn more

10-Day Weather Forecast

Advertisements
Track Severe Weather on mobile